Bishop, CA (93514)

1:14 PM PDT on August 24, 2016 (GMT -0700)
West Bishop | | Change Station

Elev 4370 ft 37.36 °N, 118.45 °W | Updated 8 minutes ago

Clear
Clear
93.9 °F
Feels Like 89 °F
N
1.7
Wind Variable Wind from South

Today
High -- | Low -- °F
--% Chance of Precip.
Yesterday
High -- | Low -- °F
Precip. -- in
Pressure 29.95 in
Visibility 10.0 miles
Clouds Clear
Heat Index 89 °F
Dew Point 36 °F
Humidity 13%
Rainfall 0.00 in
Snow Depth Not available.
6:18 AM 7:33 PM
Waning Gibbous, 54% visible
METAR KBIH 241956Z AUTO VRB04KT 10SM CLR 34/M04 A3010 RMK AO2 SLP141 T03391039
Pressure 29.95 in
Visibility 10.0 miles
Clouds Clear
Heat Index 89 °F
Dew Point 36 °F
Humidity 13%
Rainfall 0.00 in
Snow Depth Not available.
6:18 AM 7:33 PM
Waning Gibbous, 54% visible
METAR KBIH 241956Z AUTO VRB04KT 10SM CLR 34/M04 A3010 RMK AO2 SLP141 T03391039

10-Day Weather Forecast

Almanac

Astronomy

Aug. 24, 2016 Rise Set
Actual Time
Civil Twilight
Nautical Twilight
Astronomical Twilight
Moon
Length of Visible Light
Length of Day
Tomorrow will be .
, % of the Moon is Illuminated

Today's Extremes

State Highs State Lows

Community

WunderPhotos

Upload Photos

1,934,699 photos uploaded!

WunderBlog® & News

Nearby

Air Quality

  Air Quality AQ Index Pollutant
Not available.

Snow Depth

Station Depth Elevation

Earthquake Activity

City Distance Mag. Time & Date
Minimum magnitude displayed is 2.5.

Coastal Water Temperatures

Place Temperature

Stations

Nearby Weather Stations

Station Location Temp. Windchill Dew Point Humidity Wind Precip. Elev Updated Type
                   

Watches & Warnings

There are currently no watches in effect.